sensor_id;sensor_type;location;lat;lon;timestamp;P1;durP1;ratioP1;P2;durP2;ratioP2
54388;SDS011;40975;50.390;8.640;2022-07-29T00:02:00;1.73;;;1.20;;
54388;SDS011;40975;50.390;8.640;2022-07-29T00:04:25;3.78;;;0.95;;
54388;SDS011;40975;50.390;8.640;2022-07-29T00:06:51;3.10;;;1.00;;
54388;SDS011;40975;50.390;8.640;2022-07-29T00:09:16;4.32;;;1.08;;
54388;SDS011;40975;50.390;8.640;2022-07-29T00:11:41;1.35;;;0.88;;
54388;SDS011;40975;50.390;8.640;2022-07-29T00:14:07;3.97;;;1.08;;
54388;SDS011;40975;50.390;8.640;2022-07-29T00:16:33;5.93;;;1.30;;
54388;SDS011;40975;50.390;8.640;2022-07-29T00:18:58;2.30;;;0.80;;
54388;SDS011;40975;50.390;8.640;2022-07-29T00:21:24;3.30;;;1.20;;
54388;SDS011;40975;50.390;8.640;2022-07-29T00:23:49;2.95;;;1.20;;
54388;SDS011;40975;50.390;8.640;2022-07-29T00:26:14;1.27;;;0.90;;
54388;SDS011;40975;50.390;8.640;2022-07-29T00:28:40;3.85;;;0.88;;
54388;SDS011;40975;50.390;8.640;2022-07-29T00:31:05;2.03;;;1.08;;
54388;SDS011;40975;50.390;8.640;2022-07-29T00:33:30;4.95;;;1.08;;
54388;SDS011;40975;50.390;8.640;2022-07-29T00:35:56;4.32;;;0.93;;
54388;SDS011;40975;50.390;8.640;2022-07-29T00:38:21;5.68;;;1.10;;
54388;SDS011;40975;50.390;8.640;2022-07-29T00:40:47;2.95;;;0.88;;
54388;SDS011;40975;50.390;8.640;2022-07-29T00:43:12;1.23;;;0.93;;
54388;SDS011;40975;50.390;8.640;2022-07-29T00:45:39;3.80;;;1.20;;
54388;SDS011;40975;50.390;8.640;2022-07-29T00:48:04;3.95;;;1.20;;
54388;SDS011;40975;50.390;8.640;2022-07-29T00:50:32;2.78;;;1.00;;
54388;SDS011;40975;50.390;8.640;2022-07-29T00:52:58;4.88;;;1.52;;
54388;SDS011;40975;50.390;8.640;2022-07-29T00:55:23;3.05;;;1.08;;
54388;SDS011;40975;50.390;8.640;2022-07-29T00:57:49;6.63;;;1.58;;
54388;SDS011;40975;50.390;8.640;2022-07-29T01:00:16;7.82;;;1.83;;
54388;SDS011;40975;50.390;8.640;2022-07-29T01:02:44;12.43;;;2.92;;
54388;SDS011;40975;50.390;8.640;2022-07-29T01:05:10;8.95;;;2.50;;
54388;SDS011;40975;50.390;8.640;2022-07-29T01:07:37;5.47;;;2.85;;
54388;SDS011;40975;50.390;8.640;2022-07-29T01:10:04;4.45;;;2.75;;
54388;SDS011;40975;50.390;8.640;2022-07-29T01:12:31;5.85;;;2.10;;
54388;SDS011;40975;50.390;8.640;2022-07-29T01:15:00;5.28;;;2.65;;
54388;SDS011;40975;50.390;8.640;2022-07-29T01:17:28;4.97;;;2.70;;
54388;SDS011;40975;50.390;8.640;2022-07-29T01:25:43;5.90;;;2.63;;
54388;SDS011;40975;50.390;8.640;2022-07-29T01:31:06;5.80;;;2.30;;
54388;SDS011;40975;50.390;8.640;2022-07-29T01:33:35;3.85;;;2.30;;
54388;SDS011;40975;50.390;8.640;2022-07-29T01:36:37;4.55;;;2.67;;
54388;SDS011;40975;50.390;8.640;2022-07-29T01:39:26;3.30;;;2.30;;
54388;SDS011;40975;50.390;8.640;2022-07-29T01:44:26;4.65;;;2.35;;
54388;SDS011;40975;50.390;8.640;2022-07-29T01:47:15;4.53;;;2.38;;
54388;SDS011;40975;50.390;8.640;2022-07-29T01:52:15;5.38;;;2.33;;
54388;SDS011;40975;50.390;8.640;2022-07-29T01:54:49;8.00;;;2.45;;
54388;SDS011;40975;50.390;8.640;2022-07-29T01:57:20;5.97;;;2.30;;
54388;SDS011;40975;50.390;8.640;2022-07-29T01:59:50;5.43;;;2.05;;
54388;SDS011;40975;50.390;8.640;2022-07-29T02:02:16;3.25;;;2.47;;
54388;SDS011;40975;50.390;8.640;2022-07-29T02:04:44;3.00;;;2.17;;
54388;SDS011;40975;50.390;8.640;2022-07-29T02:07:13;3.47;;;2.30;;
54388;SDS011;40975;50.390;8.640;2022-07-29T02:09:43;5.70;;;2.30;;
54388;SDS011;40975;50.390;8.640;2022-07-29T02:12:10;4.35;;;2.90;;
54388;SDS011;40975;50.390;8.640;2022-07-29T02:14:39;7.07;;;3.35;;
54388;SDS011;40975;50.390;8.640;2022-07-29T02:17:09;4.43;;;2.90;;
54388;SDS011;40975;50.390;8.640;2022-07-29T02:19:37;3.92;;;2.67;;
54388;SDS011;40975;50.390;8.640;2022-07-29T02:22:04;5.05;;;2.60;;
54388;SDS011;40975;50.390;8.640;2022-07-29T02:24:31;5.72;;;2.70;;
54388;SDS011;40975;50.390;8.640;2022-07-29T02:26:57;4.32;;;2.85;;
54388;SDS011;40975;50.390;8.640;2022-07-29T02:29:26;3.70;;;2.80;;
54388;SDS011;40975;50.390;8.640;2022-07-29T02:31:53;4.05;;;2.85;;
54388;SDS011;40975;50.390;8.640;2022-07-29T02:34:20;4.43;;;3.05;;
54388;SDS011;40975;50.390;8.640;2022-07-29T02:36:46;3.65;;;2.85;;
54388;SDS011;40975;50.390;8.640;2022-07-29T02:39:14;6.43;;;2.83;;
54388;SDS011;40975;50.390;8.640;2022-07-29T02:41:42;6.95;;;2.47;;
54388;SDS011;40975;50.390;8.640;2022-07-29T02:44:14;6.65;;;2.85;;
54388;SDS011;40975;50.390;8.640;2022-07-29T02:46:43;2.85;;;2.60;;
54388;SDS011;40975;50.390;8.640;2022-07-29T02:51:43;5.20;;;2.78;;
54388;SDS011;40975;50.390;8.640;2022-07-29T02:54:19;3.22;;;2.70;;
54388;SDS011;40975;50.390;8.640;2022-07-29T02:56:48;4.00;;;2.55;;
54388;SDS011;40975;50.390;8.640;2022-07-29T02:59:14;4.88;;;2.80;;
54388;SDS011;40975;50.390;8.640;2022-07-29T03:01:46;5.15;;;2.75;;
54388;SDS011;40975;50.390;8.640;2022-07-29T03:04:13;5.00;;;3.58;;
54388;SDS011;40975;50.390;8.640;2022-07-29T03:06:40;3.45;;;2.70;;
54388;SDS011;40975;50.390;8.640;2022-07-29T03:09:08;3.92;;;2.97;;
54388;SDS011;40975;50.390;8.640;2022-07-29T03:11:35;7.07;;;3.13;;
54388;SDS011;40975;50.390;8.640;2022-07-29T03:14:01;5.63;;;3.70;;
54388;SDS011;40975;50.390;8.640;2022-07-29T03:16:27;4.85;;;3.58;;
54388;SDS011;40975;50.390;8.640;2022-07-29T03:18:53;5.20;;;3.70;;
54388;SDS011;40975;50.390;8.640;2022-07-29T03:21:19;6.10;;;3.20;;
54388;SDS011;40975;50.390;8.640;2022-07-29T03:23:44;4.50;;;3.20;;
54388;SDS011;40975;50.390;8.640;2022-07-29T03:26:10;5.93;;;3.28;;
54388;SDS011;40975;50.390;8.640;2022-07-29T03:28:36;4.75;;;2.80;;
54388;SDS011;40975;50.390;8.640;2022-07-29T03:31:01;3.42;;;3.10;;
54388;SDS011;40975;50.390;8.640;2022-07-29T03:33:27;3.22;;;2.67;;
54388;SDS011;40975;50.390;8.640;2022-07-29T03:35:53;3.72;;;2.85;;
54388;SDS011;40975;50.390;8.640;2022-07-29T03:38:19;5.30;;;2.55;;
54388;SDS011;40975;50.390;8.640;2022-07-29T03:40:52;5.97;;;2.95;;
54388;SDS011;40975;50.390;8.640;2022-07-29T03:43:20;3.63;;;3.10;;
54388;SDS011;40975;50.390;8.640;2022-07-29T03:45:50;3.22;;;2.95;;
54388;SDS011;40975;50.390;8.640;2022-07-29T03:48:19;5.22;;;3.08;;
54388;SDS011;40975;50.390;8.640;2022-07-29T03:50:46;5.07;;;2.70;;
54388;SDS011;40975;50.390;8.640;2022-07-29T03:53:13;3.88;;;2.90;;
54388;SDS011;40975;50.390;8.640;2022-07-29T03:55:42;3.78;;;3.17;;
54388;SDS011;40975;50.390;8.640;2022-07-29T03:58:10;3.58;;;2.88;;
54388;SDS011;40975;50.390;8.640;2022-07-29T04:00:37;5.13;;;3.20;;
54388;SDS011;40975;50.390;8.640;2022-07-29T04:03:03;6.50;;;3.60;;
54388;SDS011;40975;50.390;8.640;2022-07-29T04:05:29;4.03;;;3.17;;
54388;SDS011;40975;50.390;8.640;2022-07-29T04:07:54;5.05;;;3.20;;
54388;SDS011;40975;50.390;8.640;2022-07-29T04:10:20;6.25;;;3.65;;
54388;SDS011;40975;50.390;8.640;2022-07-29T04:12:46;6.82;;;3.63;;
54388;SDS011;40975;50.390;8.640;2022-07-29T04:15:11;4.50;;;3.38;;
54388;SDS011;40975;50.390;8.640;2022-07-29T04:17:36;5.10;;;3.85;;
54388;SDS011;40975;50.390;8.640;2022-07-29T04:20:03;7.00;;;3.90;;
54388;SDS011;40975;50.390;8.640;2022-07-29T04:22:29;5.65;;;3.72;;
54388;SDS011;40975;50.390;8.640;2022-07-29T04:24:54;6.57;;;4.10;;
54388;SDS011;40975;50.390;8.640;2022-07-29T04:27:19;8.60;;;4.07;;
54388;SDS011;40975;50.390;8.640;2022-07-29T04:29:45;6.00;;;3.33;;
54388;SDS011;40975;50.390;8.640;2022-07-29T04:32:10;4.93;;;3.70;;
54388;SDS011;40975;50.390;8.640;2022-07-29T04:34:35;8.93;;;4.38;;
54388;SDS011;40975;50.390;8.640;2022-07-29T04:37:01;10.57;;;3.97;;
54388;SDS011;40975;50.390;8.640;2022-07-29T04:39:26;6.15;;;3.90;;
54388;SDS011;40975;50.390;8.640;2022-07-29T04:41:51;5.97;;;3.92;;
54388;SDS011;40975;50.390;8.640;2022-07-29T04:44:17;6.45;;;3.65;;
54388;SDS011;40975;50.390;8.640;2022-07-29T04:46:42;5.18;;;2.88;;
54388;SDS011;40975;50.390;8.640;2022-07-29T04:49:08;5.10;;;3.10;;
54388;SDS011;40975;50.390;8.640;2022-07-29T04:51:33;4.72;;;3.35;;
54388;SDS011;40975;50.390;8.640;2022-07-29T04:53:59;4.25;;;3.22;;
54388;SDS011;40975;50.390;8.640;2022-07-29T04:56:25;5.47;;;3.60;;
54388;SDS011;40975;50.390;8.640;2022-07-29T04:58:50;6.40;;;3.95;;
54388;SDS011;40975;50.390;8.640;2022-07-29T05:01:15;8.10;;;3.45;;
54388;SDS011;40975;50.390;8.640;2022-07-29T05:03:41;4.70;;;3.05;;
54388;SDS011;40975;50.390;8.640;2022-07-29T05:06:06;3.90;;;3.50;;
54388;SDS011;40975;50.390;8.640;2022-07-29T05:08:32;4.80;;;3.35;;
54388;SDS011;40975;50.390;8.640;2022-07-29T05:10:57;4.75;;;3.22;;
54388;SDS011;40975;50.390;8.640;2022-07-29T05:13:22;5.38;;;3.33;;
54388;SDS011;40975;50.390;8.640;2022-07-29T05:15:48;3.53;;;3.17;;
54388;SDS011;40975;50.390;8.640;2022-07-29T05:18:13;4.72;;;3.10;;
54388;SDS011;40975;50.390;8.640;2022-07-29T05:20:39;4.00;;;3.22;;
54388;SDS011;40975;50.390;8.640;2022-07-29T05:23:04;6.25;;;3.00;;
54388;SDS011;40975;50.390;8.640;2022-07-29T05:25:30;5.45;;;3.17;;
54388;SDS011;40975;50.390;8.640;2022-07-29T05:27:56;5.63;;;3.20;;
54388;SDS011;40975;50.390;8.640;2022-07-29T05:30:21;3.72;;;3.15;;
54388;SDS011;40975;50.390;8.640;2022-07-29T05:32:47;7.32;;;3.80;;
54388;SDS011;40975;50.390;8.640;2022-07-29T05:35:13;4.75;;;3.10;;
54388;SDS011;40975;50.390;8.640;2022-07-29T05:37:39;7.15;;;3.40;;
54388;SDS011;40975;50.390;8.640;2022-07-29T05:40:05;5.32;;;2.88;;
54388;SDS011;40975;50.390;8.640;2022-07-29T05:42:30;5.50;;;2.80;;
54388;SDS011;40975;50.390;8.640;2022-07-29T05:44:56;5.25;;;3.55;;
54388;SDS011;40975;50.390;8.640;2022-07-29T05:47:21;4.93;;;3.40;;
54388;SDS011;40975;50.390;8.640;2022-07-29T05:49:47;5.68;;;2.85;;
54388;SDS011;40975;50.390;8.640;2022-07-29T05:52:13;4.22;;;2.90;;
54388;SDS011;40975;50.390;8.640;2022-07-29T05:54:39;5.15;;;3.08;;
54388;SDS011;40975;50.390;8.640;2022-07-29T05:57:05;4.15;;;2.53;;
54388;SDS011;40975;50.390;8.640;2022-07-29T05:59:36;4.28;;;2.10;;
54388;SDS011;40975;50.390;8.640;2022-07-29T06:02:02;3.72;;;2.20;;
54388;SDS011;40975;50.390;8.640;2022-07-29T06:04:30;3.40;;;2.22;;
54388;SDS011;40975;50.390;8.640;2022-07-29T06:06:56;3.72;;;2.03;;
54388;SDS011;40975;50.390;8.640;2022-07-29T06:09:21;3.15;;;1.70;;
54388;SDS011;40975;50.390;8.640;2022-07-29T06:11:47;4.50;;;1.70;;
54388;SDS011;40975;50.390;8.640;2022-07-29T06:14:13;2.15;;;1.90;;
54388;SDS011;40975;50.390;8.640;2022-07-29T06:16:38;3.92;;;1.98;;
54388;SDS011;40975;50.390;8.640;2022-07-29T06:19:04;3.28;;;2.22;;
54388;SDS011;40975;50.390;8.640;2022-07-29T06:21:29;5.15;;;2.15;;
54388;SDS011;40975;50.390;8.640;2022-07-29T06:23:54;2.28;;;1.80;;
54388;SDS011;40975;50.390;8.640;2022-07-29T06:26:20;3.20;;;1.52;;
54388;SDS011;40975;50.390;8.640;2022-07-29T06:28:45;2.58;;;1.85;;
54388;SDS011;40975;50.390;8.640;2022-07-29T06:31:10;2.22;;;1.90;;
54388;SDS011;40975;50.390;8.640;2022-07-29T06:33:36;2.45;;;1.85;;
54388;SDS011;40975;50.390;8.640;2022-07-29T06:36:03;2.13;;;1.92;;
54388;SDS011;40975;50.390;8.640;2022-07-29T06:38:29;4.95;;;1.92;;
54388;SDS011;40975;50.390;8.640;2022-07-29T06:40:54;3.00;;;2.10;;
54388;SDS011;40975;50.390;8.640;2022-07-29T06:45:51;4.07;;;2.08;;
54388;SDS011;40975;50.390;8.640;2022-07-29T06:48:21;3.55;;;2.20;;
54388;SDS011;40975;50.390;8.640;2022-07-29T06:50:46;4.65;;;2.03;;
54388;SDS011;40975;50.390;8.640;2022-07-29T06:53:11;6.57;;;2.30;;
54388;SDS011;40975;50.390;8.640;2022-07-29T06:55:37;3.50;;;1.98;;
54388;SDS011;40975;50.390;8.640;2022-07-29T06:58:03;4.63;;;2.00;;
54388;SDS011;40975;50.390;8.640;2022-07-29T07:00:28;3.72;;;2.20;;
54388;SDS011;40975;50.390;8.640;2022-07-29T07:02:53;5.15;;;2.10;;
54388;SDS011;40975;50.390;8.640;2022-07-29T07:05:19;3.65;;;2.17;;
54388;SDS011;40975;50.390;8.640;2022-07-29T07:07:44;3.90;;;1.67;;
54388;SDS011;40975;50.390;8.640;2022-07-29T07:10:09;3.58;;;1.95;;
54388;SDS011;40975;50.390;8.640;2022-07-29T07:12:35;4.47;;;1.85;;
54388;SDS011;40975;50.390;8.640;2022-07-29T07:15:00;3.60;;;1.90;;
54388;SDS011;40975;50.390;8.640;2022-07-29T07:17:25;6.45;;;1.90;;
54388;SDS011;40975;50.390;8.640;2022-07-29T07:19:51;2.33;;;1.77;;
54388;SDS011;40975;50.390;8.640;2022-07-29T07:22:16;4.35;;;1.83;;
54388;SDS011;40975;50.390;8.640;2022-07-29T07:24:41;4.45;;;2.20;;
54388;SDS011;40975;50.390;8.640;2022-07-29T07:27:07;3.35;;;1.80;;
54388;SDS011;40975;50.390;8.640;2022-07-29T07:29:32;2.25;;;1.75;;
54388;SDS011;40975;50.390;8.640;2022-07-29T07:31:57;4.40;;;1.80;;
54388;SDS011;40975;50.390;8.640;2022-07-29T07:34:23;3.85;;;1.85;;
54388;SDS011;40975;50.390;8.640;2022-07-29T07:36:48;4.97;;;2.00;;
54388;SDS011;40975;50.390;8.640;2022-07-29T07:39:13;3.33;;;1.90;;
54388;SDS011;40975;50.390;8.640;2022-07-29T07:41:39;2.95;;;2.05;;
54388;SDS011;40975;50.390;8.640;2022-07-29T07:44:04;4.13;;;1.63;;
54388;SDS011;40975;50.390;8.640;2022-07-29T07:46:31;3.20;;;1.98;;
54388;SDS011;40975;50.390;8.640;2022-07-29T07:48:56;4.22;;;2.10;;
54388;SDS011;40975;50.390;8.640;2022-07-29T07:51:21;3.47;;;1.88;;
54388;SDS011;40975;50.390;8.640;2022-07-29T07:53:47;3.90;;;1.77;;
54388;SDS011;40975;50.390;8.640;2022-07-29T07:56:15;4.15;;;2.00;;
54388;SDS011;40975;50.390;8.640;2022-07-29T07:58:41;3.92;;;1.80;;
54388;SDS011;40975;50.390;8.640;2022-07-29T08:01:06;4.10;;;2.10;;
54388;SDS011;40975;50.390;8.640;2022-07-29T08:03:32;2.65;;;1.80;;
54388;SDS011;40975;50.390;8.640;2022-07-29T08:05:58;3.22;;;1.75;;
54388;SDS011;40975;50.390;8.640;2022-07-29T08:08:23;5.70;;;1.95;;
54388;SDS011;40975;50.390;8.640;2022-07-29T08:10:49;3.85;;;1.83;;
54388;SDS011;40975;50.390;8.640;2022-07-29T08:13:17;2.92;;;1.88;;
54388;SDS011;40975;50.390;8.640;2022-07-29T08:15:43;4.35;;;2.00;;
54388;SDS011;40975;50.390;8.640;2022-07-29T08:18:10;5.80;;;2.00;;
54388;SDS011;40975;50.390;8.640;2022-07-29T08:20:38;5.20;;;2.08;;
54388;SDS011;40975;50.390;8.640;2022-07-29T08:23:05;2.65;;;1.65;;
54388;SDS011;40975;50.390;8.640;2022-07-29T08:25:36;2.50;;;1.67;;
54388;SDS011;40975;50.390;8.640;2022-07-29T08:28:03;3.30;;;1.65;;
54388;SDS011;40975;50.390;8.640;2022-07-29T08:30:28;4.88;;;1.75;;
54388;SDS011;40975;50.390;8.640;2022-07-29T08:32:54;5.07;;;2.00;;
54388;SDS011;40975;50.390;8.640;2022-07-29T08:35:19;2.45;;;1.80;;
54388;SDS011;40975;50.390;8.640;2022-07-29T08:37:46;4.28;;;1.75;;
54388;SDS011;40975;50.390;8.640;2022-07-29T08:40:11;4.45;;;1.77;;
54388;SDS011;40975;50.390;8.640;2022-07-29T08:42:37;5.47;;;2.67;;
54388;SDS011;40975;50.390;8.640;2022-07-29T08:45:03;4.30;;;2.47;;
54388;SDS011;40975;50.390;8.640;2022-07-29T08:47:29;4.03;;;2.00;;
54388;SDS011;40975;50.390;8.640;2022-07-29T08:49:55;2.85;;;1.70;;
54388;SDS011;40975;50.390;8.640;2022-07-29T08:52:20;6.38;;;2.00;;
54388;SDS011;40975;50.390;8.640;2022-07-29T08:54:46;5.05;;;1.95;;
54388;SDS011;40975;50.390;8.640;2022-07-29T08:57:13;3.60;;;1.75;;
54388;SDS011;40975;50.390;8.640;2022-07-29T08:59:40;5.45;;;2.10;;
54388;SDS011;40975;50.390;8.640;2022-07-29T09:02:08;2.22;;;1.58;;
54388;SDS011;40975;50.390;8.640;2022-07-29T09:04:43;3.55;;;1.80;;
54388;SDS011;40975;50.390;8.640;2022-07-29T09:07:10;3.58;;;1.80;;
54388;SDS011;40975;50.390;8.640;2022-07-29T09:09:39;3.53;;;1.80;;
54388;SDS011;40975;50.390;8.640;2022-07-29T09:12:05;3.38;;;2.00;;
54388;SDS011;40975;50.390;8.640;2022-07-29T09:14:32;5.47;;;1.95;;
54388;SDS011;40975;50.390;8.640;2022-07-29T09:16:57;2.47;;;1.88;;
54388;SDS011;40975;50.390;8.640;2022-07-29T09:19:24;4.10;;;1.80;;
54388;SDS011;40975;50.390;8.640;2022-07-29T09:21:55;4.32;;;1.58;;
54388;SDS011;40975;50.390;8.640;2022-07-29T09:26:59;2.30;;;1.65;;
54388;SDS011;40975;50.390;8.640;2022-07-29T09:29:25;3.40;;;2.00;;
54388;SDS011;40975;50.390;8.640;2022-07-29T09:31:51;4.43;;;1.90;;
54388;SDS011;40975;50.390;8.640;2022-07-29T09:34:22;4.30;;;2.30;;
54388;SDS011;40975;50.390;8.640;2022-07-29T09:36:49;2.10;;;1.60;;
54388;SDS011;40975;50.390;8.640;2022-07-29T09:39:17;4.13;;;2.28;;
54388;SDS011;40975;50.390;8.640;2022-07-29T09:42:04;2.10;;;1.80;;
54388;SDS011;40975;50.390;8.640;2022-07-29T09:44:44;2.42;;;2.05;;
54388;SDS011;40975;50.390;8.640;2022-07-29T09:47:10;2.70;;;2.00;;
54388;SDS011;40975;50.390;8.640;2022-07-29T09:49:53;2.20;;;1.60;;
54388;SDS011;40975;50.390;8.640;2022-07-29T09:52:19;3.20;;;2.10;;
54388;SDS011;40975;50.390;8.640;2022-07-29T09:54:44;2.80;;;1.90;;
54388;SDS011;40975;50.390;8.640;2022-07-29T09:57:21;3.17;;;2.30;;
54388;SDS011;40975;50.390;8.640;2022-07-29T10:00:00;2.17;;;1.60;;
54388;SDS011;40975;50.390;8.640;2022-07-29T10:02:40;3.65;;;1.77;;
54388;SDS011;40975;50.390;8.640;2022-07-29T10:07:47;2.28;;;1.60;;
54388;SDS011;40975;50.390;8.640;2022-07-29T10:10:22;4.47;;;2.17;;
54388;SDS011;40975;50.390;8.640;2022-07-29T10:12:56;3.78;;;2.78;;
54388;SDS011;40975;50.390;8.640;2022-07-29T10:15:27;4.20;;;1.90;;
54388;SDS011;40975;50.390;8.640;2022-07-29T10:17:55;2.47;;;1.80;;
54388;SDS011;40975;50.390;8.640;2022-07-29T10:20:23;3.28;;;2.00;;
54388;SDS011;40975;50.390;8.640;2022-07-29T10:22:49;2.28;;;1.90;;
54388;SDS011;40975;50.390;8.640;2022-07-29T10:25:15;4.32;;;2.13;;
54388;SDS011;40975;50.390;8.640;2022-07-29T10:27:42;3.38;;;1.63;;
54388;SDS011;40975;50.390;8.640;2022-07-29T10:30:12;3.47;;;2.17;;
54388;SDS011;40975;50.390;8.640;2022-07-29T10:32:43;3.40;;;2.00;;
54388;SDS011;40975;50.390;8.640;2022-07-29T10:43:59;3.90;;;2.38;;
54388;SDS011;40975;50.390;8.640;2022-07-29T10:46:27;3.25;;;1.90;;
54388;SDS011;40975;50.390;8.640;2022-07-29T10:54:15;5.93;;;2.30;;
54388;SDS011;40975;50.390;8.640;2022-07-29T10:57:17;3.33;;;1.77;;
54388;SDS011;40975;50.390;8.640;2022-07-29T11:05:02;4.00;;;2.00;;
54388;SDS011;40975;50.390;8.640;2022-07-29T11:07:30;5.38;;;1.80;;
54388;SDS011;40975;50.390;8.640;2022-07-29T11:15:02;5.28;;;1.90;;
54388;SDS011;40975;50.390;8.640;2022-07-29T11:17:45;3.72;;;2.10;;
54388;SDS011;40975;50.390;8.640;2022-07-29T11:20:34;5.57;;;1.92;;
54388;SDS011;40975;50.390;8.640;2022-07-29T11:47:21;3.30;;;1.80;;
54388;SDS011;40975;50.390;8.640;2022-07-29T11:49:47;2.17;;;1.85;;
54388;SDS011;40975;50.390;8.640;2022-07-29T11:52:13;2.10;;;1.80;;
54388;SDS011;40975;50.390;8.640;2022-07-29T11:54:38;2.95;;;2.00;;
54388;SDS011;40975;50.390;8.640;2022-07-29T11:57:07;4.38;;;2.58;;
54388;SDS011;40975;50.390;8.640;2022-07-29T11:59:40;2.92;;;1.67;;
54388;SDS011;40975;50.390;8.640;2022-07-29T12:02:09;2.05;;;1.83;;
54388;SDS011;40975;50.390;8.640;2022-07-29T12:07:35;2.90;;;2.00;;
54388;SDS011;40975;50.390;8.640;2022-07-29T12:10:02;4.10;;;2.10;;
54388;SDS011;40975;50.390;8.640;2022-07-29T12:12:28;3.10;;;1.80;;
54388;SDS011;40975;50.390;8.640;2022-07-29T12:14:54;2.72;;;1.70;;
54388;SDS011;40975;50.390;8.640;2022-07-29T12:17:30;3.08;;;2.03;;
54388;SDS011;40975;50.390;8.640;2022-07-29T12:19:59;2.20;;;1.90;;
54388;SDS011;40975;50.390;8.640;2022-07-29T12:22:37;2.17;;;1.98;;
54388;SDS011;40975;50.390;8.640;2022-07-29T12:25:12;3.28;;;2.00;;
54388;SDS011;40975;50.390;8.640;2022-07-29T12:27:40;4.28;;;1.75;;
54388;SDS011;40975;50.390;8.640;2022-07-29T12:30:09;2.33;;;1.90;;
54388;SDS011;40975;50.390;8.640;2022-07-29T12:32:39;1.73;;;1.48;;
54388;SDS011;40975;50.390;8.640;2022-07-29T12:35:11;2.35;;;1.63;;
54388;SDS011;40975;50.390;8.640;2022-07-29T12:37:38;3.28;;;2.05;;
54388;SDS011;40975;50.390;8.640;2022-07-29T12:40:06;2.03;;;1.70;;
54388;SDS011;40975;50.390;8.640;2022-07-29T12:42:32;3.85;;;2.03;;
54388;SDS011;40975;50.390;8.640;2022-07-29T12:44:59;1.77;;;1.60;;
54388;SDS011;40975;50.390;8.640;2022-07-29T12:47:25;2.88;;;1.83;;
54388;SDS011;40975;50.390;8.640;2022-07-29T12:49:50;2.33;;;1.63;;
54388;SDS011;40975;50.390;8.640;2022-07-29T12:52:32;4.45;;;1.55;;
54388;SDS011;40975;50.390;8.640;2022-07-29T12:54:59;4.65;;;2.05;;
54388;SDS011;40975;50.390;8.640;2022-07-29T12:57:26;3.58;;;1.80;;
54388;SDS011;40975;50.390;8.640;2022-07-29T13:00:07;3.00;;;1.85;;
54388;SDS011;40975;50.390;8.640;2022-07-29T13:02:35;2.97;;;1.70;;
54388;SDS011;40975;50.390;8.640;2022-07-29T13:05:02;2.85;;;2.05;;
54388;SDS011;40975;50.390;8.640;2022-07-29T13:07:29;1.85;;;1.60;;
54388;SDS011;40975;50.390;8.640;2022-07-29T13:10:09;4.07;;;1.50;;
54388;SDS011;40975;50.390;8.640;2022-07-29T13:12:36;2.65;;;1.63;;
54388;SDS011;40975;50.390;8.640;2022-07-29T13:15:11;3.80;;;2.00;;
54388;SDS011;40975;50.390;8.640;2022-07-29T13:17:41;3.03;;;1.67;;
54388;SDS011;40975;50.390;8.640;2022-07-29T13:20:09;3.85;;;1.98;;
54388;SDS011;40975;50.390;8.640;2022-07-29T13:22:39;2.67;;;1.60;;
54388;SDS011;40975;50.390;8.640;2022-07-29T13:25:07;2.35;;;1.95;;
54388;SDS011;40975;50.390;8.640;2022-07-29T13:27:33;4.93;;;1.80;;
54388;SDS011;40975;50.390;8.640;2022-07-29T13:30:03;1.70;;;1.60;;
54388;SDS011;40975;50.390;8.640;2022-07-29T13:32:30;2.47;;;2.05;;
54388;SDS011;40975;50.390;8.640;2022-07-29T13:34:57;2.72;;;1.90;;
54388;SDS011;40975;50.390;8.640;2022-07-29T13:37:25;3.05;;;1.92;;
54388;SDS011;40975;50.390;8.640;2022-07-29T13:39:51;2.58;;;2.00;;
54388;SDS011;40975;50.390;8.640;2022-07-29T13:42:18;5.15;;;2.10;;
54388;SDS011;40975;50.390;8.640;2022-07-29T13:44:44;2.72;;;1.92;;
54388;SDS011;40975;50.390;8.640;2022-07-29T13:47:09;1.80;;;1.70;;
54388;SDS011;40975;50.390;8.640;2022-07-29T13:49:35;2.10;;;1.92;;
54388;SDS011;40975;50.390;8.640;2022-07-29T13:52:00;4.22;;;1.75;;
54388;SDS011;40975;50.390;8.640;2022-07-29T13:54:26;3.22;;;2.42;;
54388;SDS011;40975;50.390;8.640;2022-07-29T13:56:52;3.05;;;1.77;;
54388;SDS011;40975;50.390;8.640;2022-07-29T13:59:17;2.30;;;1.65;;
54388;SDS011;40975;50.390;8.640;2022-07-29T14:01:42;2.38;;;1.63;;
54388;SDS011;40975;50.390;8.640;2022-07-29T14:04:08;1.95;;;1.75;;
54388;SDS011;40975;50.390;8.640;2022-07-29T14:06:36;2.70;;;1.80;;
54388;SDS011;40975;50.390;8.640;2022-07-29T14:09:03;2.58;;;1.90;;
54388;SDS011;40975;50.390;8.640;2022-07-29T14:11:31;3.92;;;2.10;;
54388;SDS011;40975;50.390;8.640;2022-07-29T14:13:57;2.25;;;1.90;;
54388;SDS011;40975;50.390;8.640;2022-07-29T14:16:22;2.97;;;1.70;;
54388;SDS011;40975;50.390;8.640;2022-07-29T14:18:48;2.28;;;1.85;;
54388;SDS011;40975;50.390;8.640;2022-07-29T14:21:13;3.90;;;2.03;;
54388;SDS011;40975;50.390;8.640;2022-07-29T14:23:38;2.67;;;2.13;;
54388;SDS011;40975;50.390;8.640;2022-07-29T14:26:04;3.20;;;2.50;;
54388;SDS011;40975;50.390;8.640;2022-07-29T14:28:29;3.85;;;2.00;;
54388;SDS011;40975;50.390;8.640;2022-07-29T14:30:54;2.50;;;1.80;;
54388;SDS011;40975;50.390;8.640;2022-07-29T14:33:20;4.47;;;2.10;;
54388;SDS011;40975;50.390;8.640;2022-07-29T14:35:45;2.22;;;1.80;;
54388;SDS011;40975;50.390;8.640;2022-07-29T14:38:10;2.40;;;1.92;;
54388;SDS011;40975;50.390;8.640;2022-07-29T14:40:36;3.05;;;1.90;;
54388;SDS011;40975;50.390;8.640;2022-07-29T14:43:02;2.58;;;1.80;;
54388;SDS011;40975;50.390;8.640;2022-07-29T14:45:27;2.30;;;2.10;;
54388;SDS011;40975;50.390;8.640;2022-07-29T14:47:53;4.05;;;2.30;;
54388;SDS011;40975;50.390;8.640;2022-07-29T14:50:19;3.40;;;2.17;;
54388;SDS011;40975;50.390;8.640;2022-07-29T14:52:44;4.90;;;3.22;;
54388;SDS011;40975;50.390;8.640;2022-07-29T14:55:10;3.85;;;2.60;;
54388;SDS011;40975;50.390;8.640;2022-07-29T14:57:35;3.75;;;2.85;;
54388;SDS011;40975;50.390;8.640;2022-07-29T15:00:01;5.82;;;3.20;;
54388;SDS011;40975;50.390;8.640;2022-07-29T15:02:27;4.32;;;3.08;;
54388;SDS011;40975;50.390;8.640;2022-07-29T15:04:53;7.60;;;2.67;;
54388;SDS011;40975;50.390;8.640;2022-07-29T15:07:18;3.78;;;2.83;;
54388;SDS011;40975;50.390;8.640;2022-07-29T15:09:43;4.25;;;3.10;;
54388;SDS011;40975;50.390;8.640;2022-07-29T15:12:10;5.53;;;3.22;;
54388;SDS011;40975;50.390;8.640;2022-07-29T15:14:36;4.68;;;3.45;;
54388;SDS011;40975;50.390;8.640;2022-07-29T15:17:01;3.17;;;2.85;;
54388;SDS011;40975;50.390;8.640;2022-07-29T15:19:27;4.78;;;3.45;;
54388;SDS011;40975;50.390;8.640;2022-07-29T15:21:52;3.80;;;3.20;;
54388;SDS011;40975;50.390;8.640;2022-07-29T15:24:18;7.50;;;3.53;;
54388;SDS011;40975;50.390;8.640;2022-07-29T15:26:43;5.20;;;3.50;;
54388;SDS011;40975;50.390;8.640;2022-07-29T15:29:09;5.25;;;3.22;;
54388;SDS011;40975;50.390;8.640;2022-07-29T15:31:35;3.42;;;3.08;;
54388;SDS011;40975;50.390;8.640;2022-07-29T15:34:00;4.32;;;3.33;;
54388;SDS011;40975;50.390;8.640;2022-07-29T15:36:25;7.43;;;3.83;;
54388;SDS011;40975;50.390;8.640;2022-07-29T15:38:52;3.58;;;3.28;;
54388;SDS011;40975;50.390;8.640;2022-07-29T15:41:18;3.92;;;3.20;;
54388;SDS011;40975;50.390;8.640;2022-07-29T15:43:44;4.05;;;3.25;;
54388;SDS011;40975;50.390;8.640;2022-07-29T15:46:15;4.10;;;3.35;;
54388;SDS011;40975;50.390;8.640;2022-07-29T15:49:00;4.43;;;3.30;;
54388;SDS011;40975;50.390;8.640;2022-07-29T15:51:27;3.58;;;3.03;;
54388;SDS011;40975;50.390;8.640;2022-07-29T15:53:52;3.83;;;3.38;;
54388;SDS011;40975;50.390;8.640;2022-07-29T15:56:18;5.47;;;3.95;;
54388;SDS011;40975;50.390;8.640;2022-07-29T15:58:43;4.13;;;3.33;;
54388;SDS011;40975;50.390;8.640;2022-07-29T16:01:08;4.65;;;3.28;;
54388;SDS011;40975;50.390;8.640;2022-07-29T16:03:34;5.90;;;3.20;;
54388;SDS011;40975;50.390;8.640;2022-07-29T16:05:59;3.80;;;3.25;;